Sandwood, South Carolina
Current Conditions -  °F | °C
As of 2:53 PM on Friday 31 Oct 2014 (Local Time) from KCUB Reporting Station
Few Clouds Few Clouds  
Wind Chill: 68°   Ceiling: Unl
Heat Index: 68°   Visibility: 10mi
Dew Point: 42°   Wind: 3mph
Humidity: 39%   Direction: NA
Pressure: 29.82"   Gusts: NA
Location:  34.025°N, 80.9562°W
Report Text: KCUB 311853Z AUTO VRB03KT 10SM FEW050 20/06 A2982 RMK AO2 SLP097 T02000056
Loading
Personal Weather Stations






























Interactive Weather Map
Tropical Storm Tracking
New forecast layout! Learn more

10-Day Weather Forecast

Advertisements
Track Severe Weather on mobile